sensor_id;sensor_type;location;lat;lon;timestamp;temperature;humidity
50606;DHT22;36557;53.572;10.170;2023-04-25T00:02:03;8.00;99.90
50606;DHT22;36557;53.572;10.170;2023-04-25T00:04:29;8.00;99.90
50606;DHT22;36557;53.572;10.170;2023-04-25T00:06:55;8.00;99.90
50606;DHT22;36557;53.572;10.170;2023-04-25T00:09:21;7.90;99.90
50606;DHT22;36557;53.572;10.170;2023-04-25T00:11:47;7.90;99.90
50606;DHT22;36557;53.572;10.170;2023-04-25T00:14:14;7.90;99.90
50606;DHT22;36557;53.572;10.170;2023-04-25T00:16:40;7.90;99.90
50606;DHT22;36557;53.572;10.170;2023-04-25T00:19:06;7.90;99.90
50606;DHT22;36557;53.572;10.170;2023-04-25T00:21:33;7.90;99.90
50606;DHT22;36557;53.572;10.170;2023-04-25T00:23:59;7.90;99.90
50606;DHT22;36557;53.572;10.170;2023-04-25T00:26:25;7.90;99.90
50606;DHT22;36557;53.572;10.170;2023-04-25T00:28:51;7.90;99.90
50606;DHT22;36557;53.572;10.170;2023-04-25T00:31:17;7.80;99.90
50606;DHT22;36557;53.572;10.170;2023-04-25T00:33:43;7.80;99.90
50606;DHT22;36557;53.572;10.170;2023-04-25T00:38:35;7.60;99.90
50606;DHT22;36557;53.572;10.170;2023-04-25T00:41:01;7.70;99.90
50606;DHT22;36557;53.572;10.170;2023-04-25T00:43:27;7.60;99.90
50606;DHT22;36557;53.572;10.170;2023-04-25T00:45:53;7.60;99.90
50606;DHT22;36557;53.572;10.170;2023-04-25T00:48:21;7.70;99.90
50606;DHT22;36557;53.572;10.170;2023-04-25T00:50:53;7.70;99.90
50606;DHT22;36557;53.572;10.170;2023-04-25T00:53:23;7.60;99.90
50606;DHT22;36557;53.572;10.170;2023-04-25T00:55:49;7.50;99.90
50606;DHT22;36557;53.572;10.170;2023-04-25T00:58:20;7.50;99.90
50606;DHT22;36557;53.572;10.170;2023-04-25T01:00:48;7.40;99.90
50606;DHT22;36557;53.572;10.170;2023-04-25T01:03:15;7.40;99.90
50606;DHT22;36557;53.572;10.170;2023-04-25T01:05:42;7.40;99.90
50606;DHT22;36557;53.572;10.170;2023-04-25T01:08:08;7.40;99.90
50606;DHT22;36557;53.572;10.170;2023-04-25T01:10:35;7.40;99.90
50606;DHT22;36557;53.572;10.170;2023-04-25T01:13:01;7.40;99.90
50606;DHT22;36557;53.572;10.170;2023-04-25T01:15:27;7.30;99.90
50606;DHT22;36557;53.572;10.170;2023-04-25T01:17:52;7.30;99.90
50606;DHT22;36557;53.572;10.170;2023-04-25T01:20:21;7.30;99.90
50606;DHT22;36557;53.572;10.170;2023-04-25T01:22:49;7.30;99.90
50606;DHT22;36557;53.572;10.170;2023-04-25T01:25:15;7.20;99.90
50606;DHT22;36557;53.572;10.170;2023-04-25T01:27:42;7.20;99.90
50606;DHT22;36557;53.572;10.170;2023-04-25T01:30:08;7.20;99.90
50606;DHT22;36557;53.572;10.170;2023-04-25T01:32:34;7.10;99.90
50606;DHT22;36557;53.572;10.170;2023-04-25T01:35:08;7.10;99.90
50606;DHT22;36557;53.572;10.170;2023-04-25T01:37:44;7.10;99.90
50606;DHT22;36557;53.572;10.170;2023-04-25T01:40:11;7.10;99.90
50606;DHT22;36557;53.572;10.170;2023-04-25T01:42:39;7.10;99.90
50606;DHT22;36557;53.572;10.170;2023-04-25T01:45:06;7.00;99.90
50606;DHT22;36557;53.572;10.170;2023-04-25T01:47:32;7.10;99.90
50606;DHT22;36557;53.572;10.170;2023-04-25T01:50:01;7.00;99.90
50606;DHT22;36557;53.572;10.170;2023-04-25T01:52:27;7.00;99.90
50606;DHT22;36557;53.572;10.170;2023-04-25T01:54:53;7.00;99.90
50606;DHT22;36557;53.572;10.170;2023-04-25T01:57:19;6.90;99.90
50606;DHT22;36557;53.572;10.170;2023-04-25T01:59:45;6.90;99.90
50606;DHT22;36557;53.572;10.170;2023-04-25T02:02:11;6.80;99.90
50606;DHT22;36557;53.572;10.170;2023-04-25T02:04:37;6.90;99.90
50606;DHT22;36557;53.572;10.170;2023-04-25T02:07:03;6.80;99.90
50606;DHT22;36557;53.572;10.170;2023-04-25T02:09:29;6.80;99.90
50606;DHT22;36557;53.572;10.170;2023-04-25T02:11:55;6.90;99.90
50606;DHT22;36557;53.572;10.170;2023-04-25T02:14:20;6.80;99.90
50606;DHT22;36557;53.572;10.170;2023-04-25T02:16:46;6.80;99.90
50606;DHT22;36557;53.572;10.170;2023-04-25T13:02:45;10.10;91.00
50606;DHT22;36557;53.572;10.170;2023-04-25T13:05:14;9.80;93.30
50606;DHT22;36557;53.572;10.170;2023-04-25T13:07:39;9.80;94.60
50606;DHT22;36557;53.572;10.170;2023-04-25T13:10:06;9.60;94.00
50606;DHT22;36557;53.572;10.170;2023-04-25T13:14:59;10.00;94.70
50606;DHT22;36557;53.572;10.170;2023-04-25T13:17:24;9.90;95.80
50606;DHT22;36557;53.572;10.170;2023-04-25T13:19:50;10.70;94.80
50606;DHT22;36557;53.572;10.170;2023-04-25T13:22:16;11.10;94.90
50606;DHT22;36557;53.572;10.170;2023-04-25T13:24:42;11.30;94.10
50606;DHT22;36557;53.572;10.170;2023-04-25T13:27:08;10.70;94.20
50606;DHT22;36557;53.572;10.170;2023-04-25T13:29:34;10.40;93.80
50606;DHT22;36557;53.572;10.170;2023-04-25T13:32:01;10.20;94.60
50606;DHT22;36557;53.572;10.170;2023-04-25T13:34:28;9.00;95.40
50606;DHT22;36557;53.572;10.170;2023-04-25T13:36:54;9.20;97.50
50606;DHT22;36557;53.572;10.170;2023-04-25T13:39:20;9.10;97.50
50606;DHT22;36557;53.572;10.170;2023-04-25T13:41:46;9.30;98.30
50606;DHT22;36557;53.572;10.170;2023-04-25T13:44:11;9.50;97.70
50606;DHT22;36557;53.572;10.170;2023-04-25T13:46:37;9.90;98.40
50606;DHT22;36557;53.572;10.170;2023-04-25T13:49:04;10.40;97.50
50606;DHT22;36557;53.572;10.170;2023-04-25T13:56:22;9.90;96.70
50606;DHT22;36557;53.572;10.170;2023-04-25T13:58:50;9.60;97.70
50606;DHT22;36557;53.572;10.170;2023-04-25T14:01:17;8.70;99.90
50606;DHT22;36557;53.572;10.170;2023-04-25T14:03:43;8.30;99.90
50606;DHT22;36557;53.572;10.170;2023-04-25T14:06:08;8.10;99.90
50606;DHT22;36557;53.572;10.170;2023-04-25T14:08:34;8.30;99.90
50606;DHT22;36557;53.572;10.170;2023-04-25T14:11:00;8.50;99.90
50606;DHT22;36557;53.572;10.170;2023-04-25T14:13:26;8.70;99.90
50606;DHT22;36557;53.572;10.170;2023-04-25T14:15:52;8.90;99.90
50606;DHT22;36557;53.572;10.170;2023-04-25T14:18:18;9.10;99.90
50606;DHT22;36557;53.572;10.170;2023-04-25T14:37:47;10.40;96.80
50606;DHT22;36557;53.572;10.170;2023-04-25T14:40:13;10.10;98.20
50606;DHT22;36557;53.572;10.170;2023-04-25T14:42:42;11.10;98.90
50606;DHT22;36557;53.572;10.170;2023-04-25T14:45:08;11.10;97.20
50606;DHT22;36557;53.572;10.170;2023-04-25T14:47:37;10.80;96.80
50606;DHT22;36557;53.572;10.170;2023-04-25T14:50:04;10.20;98.20
50606;DHT22;36557;53.572;10.170;2023-04-25T15:02:14;10.50;95.70
50606;DHT22;36557;53.572;10.170;2023-04-25T15:04:40;11.00;94.90
50606;DHT22;36557;53.572;10.170;2023-04-25T15:07:06;11.60;94.20
50606;DHT22;36557;53.572;10.170;2023-04-25T15:09:31;11.40;91.90
50606;DHT22;36557;53.572;10.170;2023-04-25T15:11:57;10.70;92.30
50606;DHT22;36557;53.572;10.170;2023-04-25T15:14:23;10.60;92.50
50606;DHT22;36557;53.572;10.170;2023-04-25T15:16:49;10.10;91.90
50606;DHT22;36557;53.572;10.170;2023-04-25T15:19:15;9.70;93.60
50606;DHT22;36557;53.572;10.170;2023-04-25T15:21:41;9.40;95.80
50606;DHT22;36557;53.572;10.170;2023-04-25T15:24:07;9.30;97.10
50606;DHT22;36557;53.572;10.170;2023-04-25T15:26:33;9.40;97.10
50606;DHT22;36557;53.572;10.170;2023-04-25T15:28:58;9.40;96.90
50606;DHT22;36557;53.572;10.170;2023-04-25T15:31:24;9.00;96.30
50606;DHT22;36557;53.572;10.170;2023-04-25T15:33:50;8.70;96.20
50606;DHT22;36557;53.572;10.170;2023-04-25T15:43:36;9.60;95.40
50606;DHT22;36557;53.572;10.170;2023-04-25T15:46:04;9.60;95.50
50606;DHT22;36557;53.572;10.170;2023-04-25T15:48:30;9.60;95.40
50606;DHT22;36557;53.572;10.170;2023-04-25T15:50:57;9.30;95.40
50606;DHT22;36557;53.572;10.170;2023-04-25T15:53:23;9.80;96.10
50606;DHT22;36557;53.572;10.170;2023-04-25T15:55:48;9.90;96.00
50606;DHT22;36557;53.572;10.170;2023-04-25T15:58:14;10.20;96.20
50606;DHT22;36557;53.572;10.170;2023-04-25T16:00:40;9.40;96.10
50606;DHT22;36557;53.572;10.170;2023-04-25T16:03:06;9.50;96.70
50606;DHT22;36557;53.572;10.170;2023-04-25T16:05:32;9.60;96.40
